createdAt,value
2022-11-30T00:01:19.110Z,23.13
2022-11-30T00:03:46.143Z,23.87
2022-11-30T00:06:13.845Z,23.33
2022-11-30T00:08:40.346Z,23.50
2022-11-30T00:11:12.295Z,23.43
2022-11-30T00:13:38.608Z,23.53
2022-11-30T00:16:05.043Z,24.40
2022-11-30T00:18:31.382Z,24.47
2022-11-30T00:21:04.573Z,24.83
2022-11-30T00:23:34.533Z,24.30
2022-11-30T00:26:05.142Z,23.27
2022-11-30T00:28:32.128Z,25.57
2022-11-30T00:31:02.571Z,26.27
2022-11-30T00:33:29.379Z,26.13
2022-11-30T00:35:56.707Z,26.07
2022-11-30T00:38:22.963Z,26.80
2022-11-30T00:40:49.232Z,26.90
2022-11-30T00:43:15.485Z,26.67
2022-11-30T00:45:41.763Z,29.50
2022-11-30T00:48:08.028Z,27.87
2022-11-30T00:50:34.430Z,29.93
2022-11-30T00:53:00.678Z,29.77
2022-11-30T00:55:29.963Z,29.40
2022-11-30T00:57:56.704Z,30.53
2022-11-30T01:00:23.158Z,30.43
2022-11-30T01:02:53.198Z,29.93
2022-11-30T01:05:19.499Z,29.40
2022-11-30T01:07:45.896Z,29.23
2022-11-30T01:10:12.238Z,29.17
2022-11-30T01:12:38.720Z,28.97
2022-11-30T01:15:05.168Z,29.53
2022-11-30T01:17:31.435Z,29.13
2022-11-30T01:19:57.707Z,28.10
2022-11-30T01:22:24.119Z,29.07
2022-11-30T01:24:50.335Z,27.90
2022-11-30T01:27:16.584Z,29.10
2022-11-30T01:29:42.900Z,28.73
2022-11-30T01:32:09.187Z,28.03
2022-11-30T01:34:35.441Z,26.63
2022-11-30T01:37:01.721Z,26.60
2022-11-30T01:39:28.009Z,26.97
2022-11-30T01:41:55.000Z,27.23
2022-11-30T01:44:26.538Z,29.33
2022-11-30T01:46:55.811Z,30.23
2022-11-30T01:49:25.155Z,30.50
2022-11-30T01:51:53.411Z,30.13
2022-11-30T01:54:22.628Z,29.80
2022-11-30T01:56:53.652Z,28.10
2022-11-30T01:59:21.307Z,28.03
2022-11-30T02:01:47.929Z,28.03
2022-11-30T02:04:22.380Z,27.93
2022-11-30T02:06:49.185Z,28.67
2022-11-30T02:09:16.505Z,27.80
2022-11-30T02:11:42.784Z,27.33
2022-11-30T02:14:12.094Z,27.23
2022-11-30T02:16:41.505Z,26.60
2022-11-30T02:19:14.112Z,27.57
2022-11-30T02:21:46.023Z,27.10
2022-11-30T02:24:30.670Z,27.33
2022-11-30T02:27:07.039Z,26.33
2022-11-30T02:29:34.761Z,26.93
2022-11-30T02:32:07.391Z,27.50
2022-11-30T02:34:35.014Z,28.33
2022-11-30T02:37:02.095Z,29.13
2022-11-30T02:39:28.353Z,28.10
2022-11-30T02:41:54.650Z,28.77
2022-11-30T02:44:22.098Z,28.17
2022-11-30T02:47:00.215Z,28.40
2022-11-30T02:49:32.747Z,27.87
2022-11-30T02:51:59.863Z,29.33
2022-11-30T02:54:26.149Z,28.87
2022-11-30T02:56:52.391Z,29.47
2022-11-30T02:59:19.260Z,29.43
2022-11-30T03:01:45.558Z,28.73
2022-11-30T03:04:11.850Z,28.00
2022-11-30T03:06:38.141Z,29.30
2022-11-30T03:09:04.452Z,29.13
2022-11-30T03:11:30.830Z,28.70
2022-11-30T03:13:57.042Z,29.30
2022-11-30T03:16:23.321Z,29.07
2022-11-30T03:18:49.629Z,29.30
2022-11-30T03:21:15.917Z,28.37
2022-11-30T03:23:42.137Z,29.27
2022-11-30T03:26:08.730Z,28.50
2022-11-30T03:28:36.273Z,28.73
2022-11-30T03:31:02.629Z,28.27
2022-11-30T03:33:28.995Z,29.67
2022-11-30T03:36:06.149Z,26.63
2022-11-30T03:38:32.898Z,26.30
2022-11-30T03:41:00.423Z,26.70
2022-11-30T03:43:26.705Z,28.30
2022-11-30T03:45:52.965Z,25.10
2022-11-30T03:48:19.273Z,26.57
2022-11-30T03:50:49.764Z,25.97
2022-11-30T03:53:20.062Z,25.53
2022-11-30T03:55:46.477Z,25.53
2022-11-30T03:58:12.785Z,25.03
2022-11-30T04:00:39.125Z,25.60
2022-11-30T04:03:05.469Z,25.83
2022-11-30T04:05:32.275Z,24.47
2022-11-30T04:07:58.601Z,24.40
2022-11-30T04:10:24.935Z,24.17
2022-11-30T04:12:51.222Z,23.60
2022-11-30T04:15:17.546Z,26.23
2022-11-30T04:17:43.786Z,23.60
2022-11-30T04:20:10.208Z,23.63
2022-11-30T04:22:36.446Z,24.37
2022-11-30T04:25:02.775Z,24.73
2022-11-30T04:27:29.141Z,25.00
2022-11-30T04:29:55.384Z,24.33
2022-11-30T04:32:21.602Z,25.00
2022-11-30T04:34:48.005Z,25.03
2022-11-30T04:37:14.436Z,24.90
2022-11-30T04:39:40.707Z,24.40
2022-11-30T04:42:07.610Z,25.53
2022-11-30T04:44:33.842Z,26.13
2022-11-30T04:47:00.183Z,24.30
2022-11-30T04:49:26.444Z,25.20
2022-11-30T04:51:52.749Z,26.20
2022-11-30T04:54:19.060Z,26.03
2022-11-30T04:56:45.311Z,25.97
2022-11-30T04:59:11.582Z,26.17
2022-11-30T05:01:38.027Z,26.33
2022-11-30T05:04:04.451Z,27.73
2022-11-30T05:06:30.812Z,27.57
2022-11-30T05:08:57.086Z,26.07
2022-11-30T05:11:23.359Z,25.93
2022-11-30T05:13:49.614Z,26.33
2022-11-30T05:16:15.932Z,26.57
2022-11-30T05:18:42.459Z,26.93
2022-11-30T05:21:08.735Z,29.30
2022-11-30T05:23:35.026Z,28.97
2022-11-30T05:26:04.283Z,26.87
2022-11-30T05:28:30.546Z,26.07
2022-11-30T05:31:01.879Z,26.20
2022-11-30T05:33:28.223Z,25.70
2022-11-30T05:35:54.514Z,26.93
2022-11-30T05:38:20.833Z,26.60
2022-11-30T05:40:47.135Z,26.07
2022-11-30T05:43:13.529Z,25.37
2022-11-30T05:45:39.938Z,27.47
2022-11-30T05:48:06.581Z,26.17
2022-11-30T05:50:32.826Z,27.10
2022-11-30T05:53:00.915Z,26.27
2022-11-30T05:55:28.207Z,27.10
2022-11-30T05:57:54.545Z,27.60
2022-11-30T06:00:21.692Z,27.90
2022-11-30T06:02:48.080Z,27.30
2022-11-30T06:05:14.556Z,27.83
2022-11-30T06:07:41.031Z,27.30
2022-11-30T06:10:07.701Z,28.23
2022-11-30T06:12:33.989Z,28.37
2022-11-30T06:15:00.224Z,28.27
2022-11-30T06:17:26.450Z,27.27
2022-11-30T06:19:52.682Z,26.67
2022-11-30T06:22:18.952Z,26.67
2022-11-30T06:24:45.704Z,26.83
2022-11-30T06:27:12.297Z,27.03
2022-11-30T06:29:38.587Z,27.13
2022-11-30T06:32:07.113Z,26.80
2022-11-30T06:34:33.350Z,26.93
2022-11-30T06:36:59.619Z,28.00
2022-11-30T06:39:49.921Z,27.57
2022-11-30T06:42:12.359Z,28.10
2022-11-30T06:44:38.579Z,28.33
2022-11-30T06:47:04.835Z,37.57
2022-11-30T06:49:31.447Z,37.40
2022-11-30T06:51:57.856Z,27.63
2022-11-30T06:54:24.172Z,27.17
2022-11-30T06:56:50.451Z,26.97
2022-11-30T06:59:16.777Z,26.37
2022-11-30T07:01:43.033Z,24.90
2022-11-30T07:04:09.415Z,25.87
2022-11-30T07:06:36.313Z,24.93
2022-11-30T07:09:02.567Z,26.47
2022-11-30T07:11:28.876Z,30.97
2022-11-30T07:13:55.181Z,32.20
2022-11-30T07:16:21.521Z,23.60
2022-11-30T07:18:47.872Z,23.80
2022-11-30T07:21:14.719Z,23.97
2022-11-30T07:23:59.734Z,25.37
2022-11-30T07:26:26.061Z,23.37
2022-11-30T07:28:58.167Z,23.27
2022-11-30T07:31:24.803Z,24.03
2022-11-30T07:33:51.408Z,24.17
2022-11-30T07:36:18.554Z,25.10
2022-11-30T07:38:45.575Z,26.07
2022-11-30T07:41:12.121Z,26.63
2022-11-30T07:43:38.753Z,38.37
2022-11-30T07:46:06.022Z,25.63
2022-11-30T07:48:33.875Z,23.97
2022-11-30T07:51:04.159Z,24.67
2022-11-30T07:53:31.303Z,24.93
2022-11-30T07:56:07.892Z,23.27
2022-11-30T07:58:34.195Z,23.47
2022-11-30T08:01:03.681Z,23.57
2022-11-30T08:03:36.427Z,23.67
2022-11-30T08:06:05.190Z,23.87
2022-11-30T08:08:32.842Z,22.27
2022-11-30T08:10:59.685Z,22.97
2022-11-30T08:13:26.146Z,22.27
2022-11-30T08:15:52.980Z,22.97
2022-11-30T08:18:19.330Z,23.53
2022-11-30T08:20:50.264Z,21.83
2022-11-30T08:23:16.614Z,22.73
2022-11-30T08:25:42.880Z,23.90
2022-11-30T08:28:09.532Z,25.60
2022-11-30T08:30:36.038Z,23.70
2022-11-30T08:33:02.571Z,23.93
2022-11-30T08:35:28.820Z,24.17
2022-11-30T08:37:55.096Z,24.37
2022-11-30T08:40:21.421Z,24.50
2022-11-30T08:42:54.126Z,24.23
2022-11-30T08:45:20.401Z,24.03
2022-11-30T08:47:46.674Z,23.80
2022-11-30T08:50:12.949Z,22.60
2022-11-30T08:52:39.242Z,23.27
2022-11-30T08:55:06.353Z,23.50
2022-11-30T08:57:33.184Z,22.70
2022-11-30T08:59:59.442Z,23.80
2022-11-30T09:02:25.769Z,22.90
2022-11-30T09:04:53.453Z,22.87
2022-11-30T09:07:20.127Z,22.20
2022-11-30T09:09:46.520Z,22.03
2022-11-30T09:12:12.992Z,21.93
2022-11-30T09:14:39.635Z,23.00
2022-11-30T09:17:05.906Z,23.20
2022-11-30T09:19:32.267Z,21.57
2022-11-30T09:21:58.530Z,23.73
2022-11-30T09:24:25.415Z,40.10
2022-11-30T09:26:54.587Z,21.97
2022-11-30T09:29:24.141Z,24.60
2022-11-30T09:31:50.546Z,21.97
2022-11-30T09:34:17.076Z,21.50
2022-11-30T09:36:43.602Z,21.60
2022-11-30T09:39:10.534Z,21.73
2022-11-30T09:41:40.005Z,21.97
2022-11-30T09:44:14.689Z,21.50
2022-11-30T09:46:45.767Z,20.23
2022-11-30T09:49:18.782Z,19.60
2022-11-30T09:51:46.318Z,19.83
2022-11-30T09:54:18.152Z,20.40
2022-11-30T09:56:44.895Z,19.73
2022-11-30T09:59:11.131Z,19.13
2022-11-30T10:01:37.913Z,20.30
2022-11-30T10:04:04.314Z,18.93
2022-11-30T10:06:35.981Z,20.33
2022-11-30T10:09:07.092Z,20.57
2022-11-30T10:11:39.488Z,21.33
2022-11-30T10:14:05.763Z,25.50
2022-11-30T10:16:55.351Z,29.77
2022-11-30T10:19:51.021Z,20.67
2022-11-30T10:22:29.877Z,21.87
2022-11-30T10:25:11.690Z,20.20
2022-11-30T10:27:41.462Z,20.97
2022-11-30T10:30:34.152Z,20.70
2022-11-30T10:33:05.268Z,22.00
2022-11-30T10:35:34.735Z,21.00
2022-11-30T10:38:04.628Z,21.40
2022-11-30T10:40:30.891Z,21.87
2022-11-30T10:43:06.570Z,21.77
2022-11-30T10:45:33.102Z,22.27
2022-11-30T10:48:05.262Z,22.63
2022-11-30T10:50:31.638Z,23.07
2022-11-30T10:52:59.137Z,23.23
2022-11-30T10:55:26.836Z,23.53
2022-11-30T10:57:55.672Z,23.93
2022-11-30T11:00:22.396Z,25.07
2022-11-30T11:02:49.230Z,24.70
2022-11-30T11:05:17.702Z,24.27
2022-11-30T11:07:51.840Z,24.23
2022-11-30T11:10:19.537Z,26.30
2022-11-30T11:12:48.238Z,38.97
2022-11-30T11:15:22.310Z,25.03
2022-11-30T11:17:48.871Z,24.77
2022-11-30T11:20:34.244Z,24.77
2022-11-30T11:23:00.920Z,26.00
2022-11-30T11:25:33.381Z,24.83
2022-11-30T11:28:02.962Z,26.13
2022-11-30T11:30:30.467Z,25.83
2022-11-30T11:33:16.811Z,26.47
2022-11-30T11:35:46.125Z,25.73
2022-11-30T11:38:27.173Z,26.93
2022-11-30T11:41:06.797Z,27.47
2022-11-30T11:43:34.369Z,27.23
2022-11-30T11:46:02.861Z,27.90
2022-11-30T11:48:31.762Z,26.67
2022-11-30T11:51:08.005Z,26.97
2022-11-30T11:53:43.891Z,27.17
2022-11-30T11:56:16.623Z,26.23
2022-11-30T11:59:01.076Z,26.67
2022-11-30T12:01:47.637Z,37.97
2022-11-30T12:04:29.256Z,30.07
2022-11-30T12:07:00.088Z,26.23
2022-11-30T12:09:39.517Z,26.07
2022-11-30T12:12:06.625Z,26.10
2022-11-30T12:14:34.160Z,25.50
2022-11-30T12:17:12.433Z,25.40
2022-11-30T12:19:47.203Z,25.97
2022-11-30T12:22:16.833Z,24.50
2022-11-30T12:25:06.387Z,25.43
2022-11-30T12:27:42.642Z,24.00
2022-11-30T12:30:41.529Z,23.93
2022-11-30T12:33:20.871Z,23.83
2022-11-30T12:35:59.765Z,25.47
2022-11-30T12:38:34.417Z,25.53
2022-11-30T12:41:18.727Z,38.50
2022-11-30T12:43:52.659Z,27.40
2022-11-30T12:46:39.299Z,25.93
2022-11-30T12:49:08.857Z,25.40
2022-11-30T12:51:37.795Z,25.80
2022-11-30T12:54:21.333Z,25.67
2022-11-30T12:56:53.454Z,26.57
2022-11-30T12:59:31.006Z,25.70
2022-11-30T13:02:16.065Z,27.20
2022-11-30T13:04:45.100Z,26.37
2022-11-30T13:07:16.129Z,25.97
2022-11-30T13:09:53.769Z,27.67
2022-11-30T13:12:23.914Z,27.47
2022-11-30T13:14:52.262Z,27.57
2022-11-30T13:17:19.298Z,28.13
2022-11-30T13:19:45.578Z,48.53
2022-11-30T13:22:32.087Z,55.63
2022-11-30T13:25:15.338Z,29.93
2022-11-30T13:27:47.631Z,29.87
2022-11-30T13:30:40.263Z,29.87
2022-11-30T13:33:25.308Z,29.87
2022-11-30T13:35:54.705Z,30.43
2022-11-30T13:38:38.091Z,31.00
2022-11-30T13:41:05.683Z,30.47
2022-11-30T13:43:35.563Z,30.77
2022-11-30T13:46:15.713Z,31.60
2022-11-30T13:48:43.755Z,31.13
2022-11-30T13:51:11.027Z,31.03
2022-11-30T13:53:39.065Z,31.33
2022-11-30T13:56:17.654Z,32.07
2022-11-30T13:59:02.731Z,30.73
2022-11-30T14:04:30.296Z,31.00
2022-11-30T14:06:56.905Z,30.83
2022-11-30T14:09:41.442Z,30.33
2022-11-30T14:12:26.666Z,29.33
2022-11-30T14:14:52.941Z,31.37
2022-11-30T14:17:21.293Z,29.93
2022-11-30T14:19:49.612Z,31.00
2022-11-30T14:22:16.266Z,29.83
2022-11-30T14:24:44.234Z,31.00
2022-11-30T14:27:14.945Z,30.50
2022-11-30T14:29:41.333Z,29.33
2022-11-30T14:32:10.898Z,29.53
2022-11-30T14:34:38.891Z,60.50
2022-11-30T14:37:22.684Z,41.50
2022-11-30T14:39:49.878Z,30.67
2022-11-30T14:42:20.909Z,31.50
2022-11-30T14:44:47.882Z,31.53
2022-11-30T14:47:15.161Z,32.80
2022-11-30T14:49:45.619Z,31.17
2022-11-30T14:52:13.515Z,29.57
2022-11-30T14:54:52.065Z,31.63
2022-11-30T14:57:47.782Z,30.37
2022-11-30T15:00:15.813Z,29.50
2022-11-30T15:02:42.999Z,29.60
2022-11-30T15:05:14.329Z,30.03
2022-11-30T15:07:41.805Z,29.43
2022-11-30T15:10:09.914Z,30.73
2022-11-30T15:12:36.335Z,29.90
2022-11-30T15:15:06.946Z,30.23
2022-11-30T15:17:42.578Z,31.73
2022-11-30T15:20:16.913Z,29.80
2022-11-30T15:22:43.179Z,28.60
2022-11-30T15:25:12.264Z,37.03
2022-11-30T15:27:38.702Z,39.17
2022-11-30T15:30:05.334Z,31.13
2022-11-30T15:32:31.655Z,31.23
2022-11-30T15:34:58.988Z,30.23
2022-11-30T15:37:29.552Z,31.20
2022-11-30T15:39:56.817Z,31.90
2022-11-30T15:42:26.582Z,29.57
2022-11-30T15:44:53.179Z,30.47
2022-11-30T15:47:25.280Z,31.40
2022-11-30T15:49:53.068Z,31.50
2022-11-30T15:52:19.512Z,32.37
2022-11-30T15:55:06.831Z,32.43
2022-11-30T15:57:52.073Z,31.00
2022-11-30T16:00:20.232Z,31.30
2022-11-30T16:02:46.947Z,31.77
2022-11-30T16:05:14.726Z,32.77
2022-11-30T16:07:49.553Z,33.17
2022-11-30T16:10:16.002Z,31.87
2022-11-30T16:12:43.650Z,32.17
2022-11-30T16:15:17.262Z,36.60
2022-11-30T16:17:43.507Z,50.97
2022-11-30T16:20:13.637Z,36.03
2022-11-30T16:22:44.316Z,33.20
2022-11-30T16:25:13.670Z,33.63
2022-11-30T16:27:40.075Z,33.70
2022-11-30T16:30:06.639Z,32.27
2022-11-30T16:32:32.900Z,33.90
2022-11-30T16:34:59.175Z,34.67
2022-11-30T16:37:25.681Z,34.93
2022-11-30T16:39:51.942Z,34.67
2022-11-30T16:42:18.234Z,35.60
2022-11-30T16:44:44.915Z,35.70
2022-11-30T16:47:11.667Z,34.57
2022-11-30T16:49:37.959Z,35.67
2022-11-30T16:52:04.618Z,36.03
2022-11-30T16:54:30.974Z,37.13
2022-11-30T16:56:57.302Z,37.10
2022-11-30T16:59:23.969Z,36.23
2022-11-30T17:01:52.994Z,36.83
2022-11-30T17:04:20.693Z,37.37
2022-11-30T17:06:50.586Z,38.40
2022-11-30T17:09:18.840Z,49.43
2022-11-30T17:11:46.888Z,38.33
2022-11-30T17:14:14.749Z,37.07
2022-11-30T17:16:41.820Z,37.30
2022-11-30T17:19:08.651Z,36.60
2022-11-30T17:21:37.153Z,36.60
2022-11-30T17:24:04.648Z,38.47
2022-11-30T17:26:33.891Z,37.13
2022-11-30T17:29:00.389Z,37.03
2022-11-30T17:31:26.820Z,37.73
2022-11-30T17:33:53.286Z,36.53
2022-11-30T17:36:19.608Z,37.03
2022-11-30T17:38:46.119Z,36.03
2022-11-30T17:41:18.550Z,36.07
2022-11-30T17:43:45.861Z,72.47
2022-11-30T17:46:14.051Z,46.13
2022-11-30T17:48:40.412Z,38.70
2022-11-30T17:51:07.103Z,36.27
2022-11-30T17:53:34.074Z,35.87
2022-11-30T17:56:03.269Z,34.47
2022-11-30T17:58:34.139Z,32.27
2022-11-30T18:01:01.756Z,32.87
2022-11-30T18:03:28.095Z,32.80
2022-11-30T18:05:54.572Z,32.00
2022-11-30T18:08:20.938Z,31.73
2022-11-30T18:10:48.030Z,31.87
2022-11-30T18:13:14.607Z,31.37
2022-11-30T18:15:41.035Z,29.90
2022-11-30T18:18:07.457Z,30.87
2022-11-30T18:20:34.021Z,30.37
2022-11-30T18:23:00.443Z,30.07
2022-11-30T18:25:26.904Z,30.67
2022-11-30T18:27:53.959Z,31.63
2022-11-30T18:30:20.470Z,30.97
2022-11-30T18:32:46.856Z,30.10
2022-11-30T18:35:13.254Z,30.80
2022-11-30T18:37:39.596Z,27.97
2022-11-30T18:40:06.189Z,29.27
2022-11-30T18:42:32.482Z,29.87
2022-11-30T18:44:58.849Z,28.53
2022-11-30T18:47:25.206Z,27.77
2022-11-30T18:49:51.596Z,27.80
2022-11-30T18:52:17.946Z,26.27
2022-11-30T18:54:44.304Z,26.70
2022-11-30T18:57:10.606Z,26.17
2022-11-30T18:59:36.888Z,27.03
2022-11-30T19:02:03.714Z,27.00
2022-11-30T19:04:30.122Z,27.97
2022-11-30T19:06:56.370Z,27.43
2022-11-30T19:09:24.144Z,28.10
2022-11-30T19:11:50.415Z,28.43
2022-11-30T19:14:16.825Z,27.83
2022-11-30T19:16:43.457Z,28.60
2022-11-30T19:19:12.120Z,28.93
2022-11-30T19:21:38.430Z,28.37
2022-11-30T19:24:05.078Z,27.27
2022-11-30T19:26:31.318Z,27.27
2022-11-30T19:28:57.941Z,27.93
2022-11-30T19:31:25.018Z,29.10
2022-11-30T19:33:52.858Z,31.23
2022-11-30T19:36:20.319Z,32.17
2022-11-30T19:38:46.607Z,27.50
2022-11-30T19:41:13.942Z,27.80
2022-11-30T19:43:40.576Z,27.53
2022-11-30T19:46:07.660Z,28.23
2022-11-30T19:48:34.314Z,27.03
2022-11-30T19:51:18.544Z,27.77
2022-11-30T19:53:45.236Z,27.03
2022-11-30T19:56:16.157Z,27.83
2022-11-30T19:58:43.785Z,28.70
2022-11-30T20:01:17.382Z,28.80
2022-11-30T20:03:46.477Z,27.77
2022-11-30T20:06:12.848Z,29.57
2022-11-30T20:08:39.086Z,28.03
2022-11-30T20:11:06.271Z,27.83
2022-11-30T20:13:32.697Z,27.67
2022-11-30T20:15:58.998Z,27.07
2022-11-30T20:18:25.342Z,27.17
2022-11-30T20:20:51.608Z,27.10
2022-11-30T20:23:17.837Z,38.50
2022-11-30T20:25:44.149Z,76.73
2022-11-30T20:28:12.747Z,27.27
2022-11-30T20:30:39.394Z,27.23
2022-11-30T20:33:05.703Z,26.83
2022-11-30T20:35:32.043Z,28.83
2022-11-30T20:37:58.309Z,28.00
2022-11-30T20:40:25.669Z,27.73
2022-11-30T20:42:52.619Z,27.70
2022-11-30T20:45:18.838Z,25.93
2022-11-30T20:47:45.056Z,25.83
2022-11-30T20:50:11.403Z,27.20
2022-11-30T20:52:37.690Z,29.03
2022-11-30T20:55:04.198Z,27.43
2022-11-30T20:57:30.475Z,26.87
2022-11-30T20:59:56.826Z,26.20
2022-11-30T21:02:23.264Z,26.97
2022-11-30T21:04:49.719Z,26.27
2022-11-30T21:07:16.227Z,27.93
2022-11-30T21:09:42.559Z,26.30
2022-11-30T21:12:08.869Z,26.63
2022-11-30T21:14:35.172Z,25.60
2022-11-30T21:17:01.471Z,27.00
2022-11-30T21:19:27.789Z,25.77
2022-11-30T21:21:55.898Z,25.87
2022-11-30T21:24:22.164Z,25.80
2022-11-30T21:26:48.418Z,25.13
2022-11-30T21:29:15.820Z,24.10
2022-11-30T21:31:42.752Z,24.90
2022-11-30T21:34:10.273Z,25.10
2022-11-30T21:36:36.600Z,25.00
2022-11-30T21:39:05.895Z,25.73
2022-11-30T21:41:34.047Z,25.93
2022-11-30T21:44:00.269Z,26.07
2022-11-30T21:46:26.596Z,26.37
2022-11-30T21:48:52.923Z,25.60
2022-11-30T21:51:21.230Z,26.83
2022-11-30T21:53:49.023Z,26.00
2022-11-30T21:56:16.743Z,25.20
2022-11-30T21:58:43.827Z,23.70
2022-11-30T22:01:17.982Z,21.83
2022-11-30T22:03:44.310Z,22.27
2022-11-30T22:06:11.785Z,21.10
2022-11-30T22:08:38.265Z,20.53
2022-11-30T22:11:06.147Z,19.83
2022-11-30T22:13:32.795Z,20.77
2022-11-30T22:16:03.996Z,19.07
2022-11-30T22:18:30.417Z,20.70
2022-11-30T22:21:07.052Z,20.67
2022-11-30T22:23:34.104Z,19.33
2022-11-30T22:26:11.038Z,20.53
2022-11-30T22:28:37.346Z,19.37
2022-11-30T22:31:04.604Z,19.00
2022-11-30T22:33:35.172Z,19.27
2022-11-30T22:36:02.220Z,19.40
2022-11-30T22:38:29.152Z,18.90
2022-11-30T22:40:55.775Z,18.90
2022-11-30T22:43:22.025Z,18.40
2022-11-30T22:45:48.259Z,19.27
2022-11-30T22:48:14.824Z,17.83
2022-11-30T22:50:41.095Z,17.43
2022-11-30T22:53:07.425Z,18.80
2022-11-30T22:55:33.903Z,17.80
2022-11-30T22:58:00.295Z,17.90
2022-11-30T23:00:26.558Z,17.37
2022-11-30T23:02:52.856Z,18.33
2022-11-30T23:05:19.119Z,16.10
2022-11-30T23:07:45.422Z,16.90
2022-11-30T23:10:11.978Z,16.67
2022-11-30T23:12:58.502Z,17.10
2022-11-30T23:15:24.454Z,15.23
2022-11-30T23:17:50.742Z,17.00
2022-11-30T23:20:16.998Z,15.57
2022-11-30T23:22:43.249Z,16.40
2022-11-30T23:25:09.665Z,15.90
2022-11-30T23:27:35.894Z,16.10
2022-11-30T23:30:02.181Z,16.10
2022-11-30T23:32:28.409Z,15.47
2022-11-30T23:34:54.676Z,15.73
2022-11-30T23:37:21.178Z,14.63
2022-11-30T23:39:47.736Z,15.63
2022-11-30T23:42:14.232Z,15.07
2022-11-30T23:44:40.518Z,14.73
2022-11-30T23:47:06.790Z,14.43
2022-11-30T23:49:33.210Z,14.33
2022-11-30T23:51:59.505Z,15.00
2022-11-30T23:54:25.849Z,14.53
2022-11-30T23:56:52.082Z,15.13
2022-11-30T23:59:18.424Z,14.43
